sensor_id;sensor_type;location;lat;lon;timestamp;temperature;humidity
54126;DHT22;40360;52.992;6.796;2022-08-21T00:00:53;15.50;99.90
54126;DHT22;40360;52.992;6.796;2022-08-21T00:03:19;15.60;99.90
54126;DHT22;40360;52.992;6.796;2022-08-21T00:05:48;15.30;99.90
54126;DHT22;40360;52.992;6.796;2022-08-21T00:08:16;15.30;99.90
54126;DHT22;40360;52.992;6.796;2022-08-21T00:10:43;15.60;99.90
54126;DHT22;40360;52.992;6.796;2022-08-21T00:13:10;15.30;99.90
54126;DHT22;40360;52.992;6.796;2022-08-21T00:15:37;15.30;99.90
54126;DHT22;40360;52.992;6.796;2022-08-21T00:18:04;15.20;99.90
54126;DHT22;40360;52.992;6.796;2022-08-21T00:20:30;16.00;99.90
54126;DHT22;40360;52.992;6.796;2022-08-21T00:22:55;14.90;99.90
54126;DHT22;40360;52.992;6.796;2022-08-21T00:25:21;14.90;99.90
54126;DHT22;40360;52.992;6.796;2022-08-21T00:27:47;14.90;99.90
54126;DHT22;40360;52.992;6.796;2022-08-21T00:30:15;14.80;99.90
54126;DHT22;40360;52.992;6.796;2022-08-21T00:32:42;15.20;99.90
54126;DHT22;40360;52.992;6.796;2022-08-21T00:35:11;14.80;99.90
54126;DHT22;40360;52.992;6.796;2022-08-21T00:37:38;14.70;99.90
54126;DHT22;40360;52.992;6.796;2022-08-21T00:40:09;14.70;99.90
54126;DHT22;40360;52.992;6.796;2022-08-21T00:42:35;14.70;99.90
54126;DHT22;40360;52.992;6.796;2022-08-21T00:45:03;14.60;99.90
54126;DHT22;40360;52.992;6.796;2022-08-21T00:47:29;14.60;99.90
54126;DHT22;40360;52.992;6.796;2022-08-21T00:49:54;14.50;99.90
54126;DHT22;40360;52.992;6.796;2022-08-21T00:52:24;14.40;99.90
54126;DHT22;40360;52.992;6.796;2022-08-21T00:54:50;14.30;99.90
54126;DHT22;40360;52.992;6.796;2022-08-21T00:57:32;14.20;99.90
54126;DHT22;40360;52.992;6.796;2022-08-21T01:00:01;14.20;99.90
54126;DHT22;40360;52.992;6.796;2022-08-21T01:02:28;14.20;99.90
54126;DHT22;40360;52.992;6.796;2022-08-21T01:04:53;14.10;99.90
54126;DHT22;40360;52.992;6.796;2022-08-21T01:07:19;14.00;99.90
54126;DHT22;40360;52.992;6.796;2022-08-21T01:09:46;13.90;99.90
54126;DHT22;40360;52.992;6.796;2022-08-21T01:12:13;13.90;99.90
54126;DHT22;40360;52.992;6.796;2022-08-21T01:14:40;13.90;99.90
54126;DHT22;40360;52.992;6.796;2022-08-21T01:17:08;14.00;99.90
54126;DHT22;40360;52.992;6.796;2022-08-21T01:19:35;13.90;99.90
54126;DHT22;40360;52.992;6.796;2022-08-21T01:22:00;13.70;99.90
54126;DHT22;40360;52.992;6.796;2022-08-21T01:24:26;13.70;99.90
54126;DHT22;40360;52.992;6.796;2022-08-21T01:26:52;13.60;99.90
54126;DHT22;40360;52.992;6.796;2022-08-21T01:29:42;13.50;99.90
54126;DHT22;40360;52.992;6.796;2022-08-21T01:32:13;13.50;99.90
54126;DHT22;40360;52.992;6.796;2022-08-21T01:34:41;13.50;99.90
54126;DHT22;40360;52.992;6.796;2022-08-21T01:37:07;13.50;99.90
54126;DHT22;40360;52.992;6.796;2022-08-21T01:39:34;13.40;99.90
54126;DHT22;40360;52.992;6.796;2022-08-21T01:42:00;13.40;99.90
54126;DHT22;40360;52.992;6.796;2022-08-21T01:44:26;13.30;99.90
54126;DHT22;40360;52.992;6.796;2022-08-21T01:46:52;13.30;99.90
54126;DHT22;40360;52.992;6.796;2022-08-21T01:49:19;13.30;99.90
54126;DHT22;40360;52.992;6.796;2022-08-21T01:51:45;13.30;99.90
54126;DHT22;40360;52.992;6.796;2022-08-21T01:54:11;13.20;99.90
54126;DHT22;40360;52.992;6.796;2022-08-21T01:56:43;13.20;99.90
54126;DHT22;40360;52.992;6.796;2022-08-21T01:59:10;13.20;99.90
54126;DHT22;40360;52.992;6.796;2022-08-21T02:01:36;13.20;99.90
54126;DHT22;40360;52.992;6.796;2022-08-21T02:04:04;13.20;99.90
54126;DHT22;40360;52.992;6.796;2022-08-21T02:06:30;13.20;99.90
54126;DHT22;40360;52.992;6.796;2022-08-21T02:08:56;13.10;99.90
54126;DHT22;40360;52.992;6.796;2022-08-21T02:11:21;13.10;99.90
54126;DHT22;40360;52.992;6.796;2022-08-21T02:13:47;13.20;99.90
54126;DHT22;40360;52.992;6.796;2022-08-21T02:16:13;13.20;99.90
54126;DHT22;40360;52.992;6.796;2022-08-21T02:18:38;13.20;99.90
54126;DHT22;40360;52.992;6.796;2022-08-21T02:21:05;13.20;99.90
54126;DHT22;40360;52.992;6.796;2022-08-21T02:23:31;13.30;99.90
54126;DHT22;40360;52.992;6.796;2022-08-21T02:26:01;13.30;99.90
54126;DHT22;40360;52.992;6.796;2022-08-21T02:28:27;13.30;99.90
54126;DHT22;40360;52.992;6.796;2022-08-21T02:30:54;13.30;99.90
54126;DHT22;40360;52.992;6.796;2022-08-21T02:33:21;13.30;99.90
54126;DHT22;40360;52.992;6.796;2022-08-21T02:35:47;13.30;99.90
54126;DHT22;40360;52.992;6.796;2022-08-21T02:38:16;13.30;99.90
54126;DHT22;40360;52.992;6.796;2022-08-21T02:40:45;13.30;99.90
54126;DHT22;40360;52.992;6.796;2022-08-21T02:43:12;13.30;99.90
54126;DHT22;40360;52.992;6.796;2022-08-21T02:45:38;13.30;99.90
54126;DHT22;40360;52.992;6.796;2022-08-21T02:48:07;13.20;99.90
54126;DHT22;40360;52.992;6.796;2022-08-21T02:50:37;13.20;99.90
54126;DHT22;40360;52.992;6.796;2022-08-21T02:53:05;13.20;99.90
54126;DHT22;40360;52.992;6.796;2022-08-21T02:55:31;13.20;99.90
54126;DHT22;40360;52.992;6.796;2022-08-21T02:57:58;13.20;99.90
54126;DHT22;40360;52.992;6.796;2022-08-21T03:00:26;13.20;99.90
54126;DHT22;40360;52.992;6.796;2022-08-21T03:02:53;13.20;99.90
54126;DHT22;40360;52.992;6.796;2022-08-21T03:05:23;13.20;99.90
54126;DHT22;40360;52.992;6.796;2022-08-21T03:07:49;13.20;99.90
54126;DHT22;40360;52.992;6.796;2022-08-21T03:10:15;13.20;99.90
54126;DHT22;40360;52.992;6.796;2022-08-21T03:12:41;13.20;99.90
54126;DHT22;40360;52.992;6.796;2022-08-21T03:15:10;13.20;99.90
54126;DHT22;40360;52.992;6.796;2022-08-21T03:17:37;13.60;99.90
54126;DHT22;40360;52.992;6.796;2022-08-21T03:20:04;13.20;99.90
54126;DHT22;40360;52.992;6.796;2022-08-21T03:22:30;13.10;99.90
54126;DHT22;40360;52.992;6.796;2022-08-21T03:24:56;13.10;99.90
54126;DHT22;40360;52.992;6.796;2022-08-21T03:27:22;13.90;99.90
54126;DHT22;40360;52.992;6.796;2022-08-21T03:29:49;13.10;99.90
54126;DHT22;40360;52.992;6.796;2022-08-21T03:32:15;13.10;99.90
54126;DHT22;40360;52.992;6.796;2022-08-21T03:34:40;13.00;99.90
54126;DHT22;40360;52.992;6.796;2022-08-21T03:37:06;13.00;99.90
54126;DHT22;40360;52.992;6.796;2022-08-21T03:39:32;13.00;99.90
54126;DHT22;40360;52.992;6.796;2022-08-21T03:41:58;13.30;99.90
54126;DHT22;40360;52.992;6.796;2022-08-21T03:44:25;13.00;99.90
54126;DHT22;40360;52.992;6.796;2022-08-21T03:46:53;13.00;99.90
54126;DHT22;40360;52.992;6.796;2022-08-21T03:49:19;13.00;99.90
54126;DHT22;40360;52.992;6.796;2022-08-21T03:51:44;13.00;99.90
54126;DHT22;40360;52.992;6.796;2022-08-21T03:54:10;13.00;99.90
54126;DHT22;40360;52.992;6.796;2022-08-21T03:56:35;13.40;99.90
54126;DHT22;40360;52.992;6.796;2022-08-21T03:59:01;13.00;99.90
54126;DHT22;40360;52.992;6.796;2022-08-21T04:01:28;13.10;99.90
54126;DHT22;40360;52.992;6.796;2022-08-21T04:03:53;13.10;99.90
54126;DHT22;40360;52.992;6.796;2022-08-21T04:06:19;13.10;99.90
54126;DHT22;40360;52.992;6.796;2022-08-21T04:08:44;13.00;99.90
54126;DHT22;40360;52.992;6.796;2022-08-21T04:11:10;13.10;99.90
54126;DHT22;40360;52.992;6.796;2022-08-21T04:13:36;13.10;99.90
54126;DHT22;40360;52.992;6.796;2022-08-21T04:16:02;13.10;99.90
54126;DHT22;40360;52.992;6.796;2022-08-21T04:18:28;13.20;99.90
54126;DHT22;40360;52.992;6.796;2022-08-21T04:20:56;13.20;99.90
54126;DHT22;40360;52.992;6.796;2022-08-21T04:23:23;13.90;99.90
54126;DHT22;40360;52.992;6.796;2022-08-21T04:25:49;13.30;99.90
54126;DHT22;40360;52.992;6.796;2022-08-21T04:28:14;13.30;99.90
54126;DHT22;40360;52.992;6.796;2022-08-21T04:30:40;13.40;99.90
54126;DHT22;40360;52.992;6.796;2022-08-21T04:33:06;13.40;99.90
54126;DHT22;40360;52.992;6.796;2022-08-21T04:35:32;13.50;99.90
54126;DHT22;40360;52.992;6.796;2022-08-21T04:37:58;13.50;99.90
54126;DHT22;40360;52.992;6.796;2022-08-21T04:40:26;13.60;99.90
54126;DHT22;40360;52.992;6.796;2022-08-21T04:42:56;13.60;99.90
54126;DHT22;40360;52.992;6.796;2022-08-21T04:45:28;13.70;99.90
54126;DHT22;40360;52.992;6.796;2022-08-21T04:47:56;13.70;99.90
54126;DHT22;40360;52.992;6.796;2022-08-21T04:50:26;13.80;99.90
54126;DHT22;40360;52.992;6.796;2022-08-21T04:52:53;13.80;99.90
54126;DHT22;40360;52.992;6.796;2022-08-21T04:55:20;13.90;99.90
54126;DHT22;40360;52.992;6.796;2022-08-21T04:57:46;13.90;99.90
54126;DHT22;40360;52.992;6.796;2022-08-21T05:00:13;14.90;99.90
54126;DHT22;40360;52.992;6.796;2022-08-21T05:02:40;14.00;99.90
54126;DHT22;40360;52.992;6.796;2022-08-21T05:21:55;14.80;99.90
54126;DHT22;40360;52.992;6.796;2022-08-21T05:24:20;14.50;99.90
54126;DHT22;40360;52.992;6.796;2022-08-21T05:26:46;14.80;99.90
54126;DHT22;40360;52.992;6.796;2022-08-21T05:29:14;14.60;99.90
54126;DHT22;40360;52.992;6.796;2022-08-21T05:31:40;14.70;99.90
54126;DHT22;40360;52.992;6.796;2022-08-21T05:34:05;14.70;99.90
54126;DHT22;40360;52.992;6.796;2022-08-21T05:36:31;14.80;99.90
54126;DHT22;40360;52.992;6.796;2022-08-21T05:38:57;14.80;99.90
54126;DHT22;40360;52.992;6.796;2022-08-21T05:41:22;14.90;99.90
54126;DHT22;40360;52.992;6.796;2022-08-21T05:43:48;15.00;99.90
54126;DHT22;40360;52.992;6.796;2022-08-21T05:46:14;15.00;99.90
54126;DHT22;40360;52.992;6.796;2022-08-21T05:48:39;15.10;99.90
54126;DHT22;40360;52.992;6.796;2022-08-21T05:51:07;15.90;99.90
54126;DHT22;40360;52.992;6.796;2022-08-21T05:53:34;15.80;99.90
54126;DHT22;40360;52.992;6.796;2022-08-21T05:56:00;15.30;99.90
54126;DHT22;40360;52.992;6.796;2022-08-21T05:58:29;15.30;99.90
54126;DHT22;40360;52.992;6.796;2022-08-21T06:00:54;15.80;99.90
54126;DHT22;40360;52.992;6.796;2022-08-21T06:03:26;15.50;99.90
54126;DHT22;40360;52.992;6.796;2022-08-21T06:05:52;15.90;99.90
54126;DHT22;40360;52.992;6.796;2022-08-21T06:08:19;15.70;99.90
54126;DHT22;40360;52.992;6.796;2022-08-21T06:10:46;15.60;99.90
54126;DHT22;40360;52.992;6.796;2022-08-21T06:13:13;15.70;99.90
54126;DHT22;40360;52.992;6.796;2022-08-21T06:15:39;15.80;99.90
54126;DHT22;40360;52.992;6.796;2022-08-21T06:18:05;15.90;99.90
54126;DHT22;40360;52.992;6.796;2022-08-21T06:20:31;16.00;99.90
54126;DHT22;40360;52.992;6.796;2022-08-21T06:22:57;16.00;99.90
54126;DHT22;40360;52.992;6.796;2022-08-21T06:25:23;16.10;99.90
54126;DHT22;40360;52.992;6.796;2022-08-21T06:27:50;16.20;99.90
54126;DHT22;40360;52.992;6.796;2022-08-21T06:30:16;16.20;99.90
54126;DHT22;40360;52.992;6.796;2022-08-21T06:32:42;16.30;99.90
54126;DHT22;40360;52.992;6.796;2022-08-21T06:35:07;16.40;99.90
54126;DHT22;40360;52.992;6.796;2022-08-21T06:37:33;16.50;99.90
54126;DHT22;40360;52.992;6.796;2022-08-21T06:39:59;16.60;99.90
54126;DHT22;40360;52.992;6.796;2022-08-21T06:42:24;16.70;99.90
54126;DHT22;40360;52.992;6.796;2022-08-21T06:44:51;16.80;99.90
54126;DHT22;40360;52.992;6.796;2022-08-21T06:47:17;16.90;99.90
54126;DHT22;40360;52.992;6.796;2022-08-21T06:49:42;17.00;99.90
54126;DHT22;40360;52.992;6.796;2022-08-21T06:52:10;17.10;99.90
54126;DHT22;40360;52.992;6.796;2022-08-21T06:54:36;17.20;99.90
54126;DHT22;40360;52.992;6.796;2022-08-21T06:57:02;17.30;99.90
54126;DHT22;40360;52.992;6.796;2022-08-21T06:59:28;17.40;99.90
54126;DHT22;40360;52.992;6.796;2022-08-21T07:01:53;17.50;99.90
54126;DHT22;40360;52.992;6.796;2022-08-21T07:04:19;17.60;99.90
54126;DHT22;40360;52.992;6.796;2022-08-21T07:06:45;17.70;99.90
54126;DHT22;40360;52.992;6.796;2022-08-21T07:09:11;17.70;99.90
54126;DHT22;40360;52.992;6.796;2022-08-21T07:11:37;17.80;99.90
54126;DHT22;40360;52.992;6.796;2022-08-21T07:14:03;18.00;99.90
54126;DHT22;40360;52.992;6.796;2022-08-21T07:16:29;18.70;99.90
54126;DHT22;40360;52.992;6.796;2022-08-21T07:18:55;18.20;99.90
54126;DHT22;40360;52.992;6.796;2022-08-21T07:21:21;18.30;99.90
54126;DHT22;40360;52.992;6.796;2022-08-21T07:23:50;18.40;99.90
54126;DHT22;40360;52.992;6.796;2022-08-21T07:26:18;18.40;99.90
54126;DHT22;40360;52.992;6.796;2022-08-21T07:28:46;19.00;99.90
54126;DHT22;40360;52.992;6.796;2022-08-21T07:31:14;19.40;99.90
54126;DHT22;40360;52.992;6.796;2022-08-21T07:33:41;18.80;99.90
54126;DHT22;40360;52.992;6.796;2022-08-21T07:36:07;18.90;99.90
54126;DHT22;40360;52.992;6.796;2022-08-21T07:38:33;19.00;99.90
54126;DHT22;40360;52.992;6.796;2022-08-21T07:41:00;19.10;99.90
54126;DHT22;40360;52.992;6.796;2022-08-21T07:43:27;19.20;99.90
54126;DHT22;40360;52.992;6.796;2022-08-21T07:45:53;19.30;99.90
54126;DHT22;40360;52.992;6.796;2022-08-21T07:48:20;19.40;99.90
54126;DHT22;40360;52.992;6.796;2022-08-21T07:50:46;19.60;99.90
54126;DHT22;40360;52.992;6.796;2022-08-21T07:53:12;20.00;99.90
54126;DHT22;40360;52.992;6.796;2022-08-21T07:55:38;19.80;99.90
54126;DHT22;40360;52.992;6.796;2022-08-21T07:58:03;20.20;99.90
54126;DHT22;40360;52.992;6.796;2022-08-21T08:00:29;20.00;99.90
54126;DHT22;40360;52.992;6.796;2022-08-21T08:02:56;20.00;99.90
54126;DHT22;40360;52.992;6.796;2022-08-21T08:05:26;20.30;99.90
54126;DHT22;40360;52.992;6.796;2022-08-21T08:07:51;20.40;99.90
54126;DHT22;40360;52.992;6.796;2022-08-21T08:10:18;20.50;99.90
54126;DHT22;40360;52.992;6.796;2022-08-21T08:12:45;20.50;99.90
54126;DHT22;40360;52.992;6.796;2022-08-21T08:15:15;20.50;99.90
54126;DHT22;40360;52.992;6.796;2022-08-21T08:17:41;21.10;99.90
54126;DHT22;40360;52.992;6.796;2022-08-21T08:20:07;20.70;99.90
54126;DHT22;40360;52.992;6.796;2022-08-21T08:22:35;20.90;99.90
54126;DHT22;40360;52.992;6.796;2022-08-21T08:25:01;21.10;99.90
54126;DHT22;40360;52.992;6.796;2022-08-21T08:27:27;21.30;99.90
54126;DHT22;40360;52.992;6.796;2022-08-21T08:29:52;21.10;99.90
54126;DHT22;40360;52.992;6.796;2022-08-21T08:32:19;21.10;99.90
54126;DHT22;40360;52.992;6.796;2022-08-21T08:34:45;21.30;99.90
54126;DHT22;40360;52.992;6.796;2022-08-21T08:37:12;21.50;99.90
54126;DHT22;40360;52.992;6.796;2022-08-21T08:39:38;21.90;99.90
54126;DHT22;40360;52.992;6.796;2022-08-21T08:42:14;21.70;99.90
54126;DHT22;40360;52.992;6.796;2022-08-21T08:44:45;21.90;99.90
54126;DHT22;40360;52.992;6.796;2022-08-21T08:47:14;22.00;99.90
54126;DHT22;40360;52.992;6.796;2022-08-21T08:49:49;22.10;99.90
54126;DHT22;40360;52.992;6.796;2022-08-21T08:52:34;22.80;99.90
54126;DHT22;40360;52.992;6.796;2022-08-21T08:55:05;22.40;99.90
54126;DHT22;40360;52.992;6.796;2022-08-21T08:57:32;22.40;99.90
54126;DHT22;40360;52.992;6.796;2022-08-21T09:00:04;23.10;99.90
54126;DHT22;40360;52.992;6.796;2022-08-21T09:02:30;23.00;99.90
54126;DHT22;40360;52.992;6.796;2022-08-21T09:04:56;23.00;99.90
54126;DHT22;40360;52.992;6.796;2022-08-21T09:07:28;23.30;99.90
54126;DHT22;40360;52.992;6.796;2022-08-21T09:10:21;22.90;99.90
54126;DHT22;40360;52.992;6.796;2022-08-21T09:20:44;23.10;99.90
54126;DHT22;40360;52.992;6.796;2022-08-21T09:23:17;23.10;99.90
54126;DHT22;40360;52.992;6.796;2022-08-21T09:26:13;23.30;99.90
54126;DHT22;40360;52.992;6.796;2022-08-21T09:28:40;23.50;99.90
54126;DHT22;40360;52.992;6.796;2022-08-21T09:31:18;23.60;99.90
54126;DHT22;40360;52.992;6.796;2022-08-21T09:33:45;23.70;99.90
54126;DHT22;40360;52.992;6.796;2022-08-21T09:36:11;23.80;99.90
54126;DHT22;40360;52.992;6.796;2022-08-21T09:38:37;23.90;99.90
54126;DHT22;40360;52.992;6.796;2022-08-21T09:41:06;24.50;99.90
54126;DHT22;40360;52.992;6.796;2022-08-21T09:43:33;23.90;99.90
54126;DHT22;40360;52.992;6.796;2022-08-21T09:48:42;24.10;99.90
54126;DHT22;40360;52.992;6.796;2022-08-21T09:51:20;24.20;99.90
54126;DHT22;40360;52.992;6.796;2022-08-21T09:53:51;23.90;99.90
54126;DHT22;40360;52.992;6.796;2022-08-21T09:56:21;24.40;99.90
54126;DHT22;40360;52.992;6.796;2022-08-21T09:59:34;24.00;99.90
54126;DHT22;40360;52.992;6.796;2022-08-21T10:02:03;23.90;99.90
54126;DHT22;40360;52.992;6.796;2022-08-21T10:04:39;24.10;99.90
54126;DHT22;40360;52.992;6.796;2022-08-21T10:07:09;24.20;99.90
54126;DHT22;40360;52.992;6.796;2022-08-21T10:09:35;24.20;99.90
54126;DHT22;40360;52.992;6.796;2022-08-21T10:12:20;24.40;99.90
54126;DHT22;40360;52.992;6.796;2022-08-21T10:20:19;24.70;99.90
54126;DHT22;40360;52.992;6.796;2022-08-21T10:25:35;24.60;99.90
54126;DHT22;40360;52.992;6.796;2022-08-21T10:28:17;25.20;99.90
54126;DHT22;40360;52.992;6.796;2022-08-21T10:31:03;24.70;99.90
54126;DHT22;40360;52.992;6.796;2022-08-21T10:33:36;24.80;99.90
54126;DHT22;40360;52.992;6.796;2022-08-21T10:36:23;25.00;99.90
54126;DHT22;40360;52.992;6.796;2022-08-21T10:38:59;25.20;99.70
54126;DHT22;40360;52.992;6.796;2022-08-21T10:44:33;25.20;99.40
54126;DHT22;40360;52.992;6.796;2022-08-21T10:53:01;25.90;99.90
54126;DHT22;40360;52.992;6.796;2022-08-21T10:55:38;25.70;98.90
54126;DHT22;40360;52.992;6.796;2022-08-21T11:01:13;25.30;99.90
54126;DHT22;40360;52.992;6.796;2022-08-21T11:03:44;25.30;99.90
54126;DHT22;40360;52.992;6.796;2022-08-21T11:06:25;25.40;99.90
54126;DHT22;40360;52.992;6.796;2022-08-21T11:08:56;25.60;99.00
54126;DHT22;40360;52.992;6.796;2022-08-21T11:11:39;25.60;98.90
54126;DHT22;40360;52.992;6.796;2022-08-21T11:14:24;25.80;99.60
54126;DHT22;40360;52.992;6.796;2022-08-21T11:17:02;26.00;98.70
54126;DHT22;40360;52.992;6.796;2022-08-21T11:19:38;26.10;98.90
54126;DHT22;40360;52.992;6.796;2022-08-21T11:22:08;26.00;98.50
54126;DHT22;40360;52.992;6.796;2022-08-21T11:27:23;26.50;99.10
54126;DHT22;40360;52.992;6.796;2022-08-21T11:29:57;26.80;98.20
54126;DHT22;40360;52.992;6.796;2022-08-21T11:32:32;26.80;98.20
54126;DHT22;40360;52.992;6.796;2022-08-21T11:38:28;26.60;96.90
54126;DHT22;40360;52.992;6.796;2022-08-21T11:46:13;26.90;96.80
54126;DHT22;40360;52.992;6.796;2022-08-21T11:49:04;26.60;97.00
54126;DHT22;40360;52.992;6.796;2022-08-21T11:54:40;25.90;97.60
54126;DHT22;40360;52.992;6.796;2022-08-21T11:57:20;25.70;97.40
54126;DHT22;40360;52.992;6.796;2022-08-21T12:00:14;25.70;98.50
54126;DHT22;40360;52.992;6.796;2022-08-21T12:02:49;25.70;98.60
54126;DHT22;40360;52.992;6.796;2022-08-21T12:05:37;25.70;98.20
54126;DHT22;40360;52.992;6.796;2022-08-21T12:08:13;25.30;98.10
54126;DHT22;40360;52.992;6.796;2022-08-21T12:10:46;25.10;98.10
54126;DHT22;40360;52.992;6.796;2022-08-21T12:13:26;25.00;98.80
54126;DHT22;40360;52.992;6.796;2022-08-21T12:15:53;25.00;98.90
54126;DHT22;40360;52.992;6.796;2022-08-21T12:18:31;25.90;99.40
54126;DHT22;40360;52.992;6.796;2022-08-21T12:21:01;25.20;99.20
54126;DHT22;40360;52.992;6.796;2022-08-21T12:23:32;25.10;99.00
54126;DHT22;40360;52.992;6.796;2022-08-21T12:28:39;24.80;99.60
54126;DHT22;40360;52.992;6.796;2022-08-21T12:31:05;24.80;99.30
54126;DHT22;40360;52.992;6.796;2022-08-21T12:33:41;24.50;99.20
54126;DHT22;40360;52.992;6.796;2022-08-21T12:36:10;24.10;99.40
54126;DHT22;40360;52.992;6.796;2022-08-21T12:38:59;24.20;99.90
54126;DHT22;40360;52.992;6.796;2022-08-21T12:41:30;24.50;99.90
54126;DHT22;40360;52.992;6.796;2022-08-21T12:44:02;24.60;99.90
54126;DHT22;40360;52.992;6.796;2022-08-21T12:46:36;24.80;99.90
54126;DHT22;40360;52.992;6.796;2022-08-21T12:52:24;24.80;99.80
54126;DHT22;40360;52.992;6.796;2022-08-21T12:54:50;24.70;99.90
54126;DHT22;40360;52.992;6.796;2022-08-21T12:57:27;24.40;99.90
54126;DHT22;40360;52.992;6.796;2022-08-21T13:02:24;24.30;99.90
54126;DHT22;40360;52.992;6.796;2022-08-21T13:04:50;24.10;99.90
54126;DHT22;40360;52.992;6.796;2022-08-21T13:07:24;23.90;99.90
54126;DHT22;40360;52.992;6.796;2022-08-21T13:09:57;23.90;99.90
54126;DHT22;40360;52.992;6.796;2022-08-21T13:12:24;23.70;99.90
54126;DHT22;40360;52.992;6.796;2022-08-21T13:14:51;23.60;99.90
54126;DHT22;40360;52.992;6.796;2022-08-21T13:17:20;23.60;99.90
54126;DHT22;40360;52.992;6.796;2022-08-21T13:19:54;23.30;99.90
54126;DHT22;40360;52.992;6.796;2022-08-21T13:22:19;23.30;99.90
54126;DHT22;40360;52.992;6.796;2022-08-21T13:24:47;23.00;99.90
54126;DHT22;40360;52.992;6.796;2022-08-21T13:27:25;22.90;99.90
54126;DHT22;40360;52.992;6.796;2022-08-21T13:30:21;23.00;99.90
54126;DHT22;40360;52.992;6.796;2022-08-21T13:32:54;22.40;99.90
54126;DHT22;40360;52.992;6.796;2022-08-21T13:35:30;22.30;99.90
54126;DHT22;40360;52.992;6.796;2022-08-21T13:37:57;21.70;99.90
54126;DHT22;40360;52.992;6.796;2022-08-21T13:40:42;21.60;99.90
54126;DHT22;40360;52.992;6.796;2022-08-21T13:43:15;21.50;99.90
54126;DHT22;40360;52.992;6.796;2022-08-21T13:45:47;21.50;99.90
54126;DHT22;40360;52.992;6.796;2022-08-21T13:48:12;21.60;99.90
54126;DHT22;40360;52.992;6.796;2022-08-21T13:50:39;22.10;99.90
54126;DHT22;40360;52.992;6.796;2022-08-21T13:53:07;21.80;99.90
54126;DHT22;40360;52.992;6.796;2022-08-21T13:55:44;21.90;99.90
54126;DHT22;40360;52.992;6.796;2022-08-21T13:58:10;22.00;99.90
54126;DHT22;40360;52.992;6.796;2022-08-21T14:00:48;22.20;99.90
54126;DHT22;40360;52.992;6.796;2022-08-21T14:03:27;22.60;99.90
54126;DHT22;40360;52.992;6.796;2022-08-21T14:05:53;23.10;99.90
54126;DHT22;40360;52.992;6.796;2022-08-21T14:08:40;23.40;99.90
54126;DHT22;40360;52.992;6.796;2022-08-21T14:11:12;23.90;99.90
54126;DHT22;40360;52.992;6.796;2022-08-21T14:13:41;24.20;99.90
54126;DHT22;40360;52.992;6.796;2022-08-21T14:16:15;24.70;99.90
54126;DHT22;40360;52.992;6.796;2022-08-21T14:18:51;24.80;99.90
54126;DHT22;40360;52.992;6.796;2022-08-21T14:21:35;24.90;99.90
54126;DHT22;40360;52.992;6.796;2022-08-21T14:24:13;24.70;99.90
54126;DHT22;40360;52.992;6.796;2022-08-21T14:27:06;24.60;99.90
54126;DHT22;40360;52.992;6.796;2022-08-21T14:29:40;24.50;99.90
54126;DHT22;40360;52.992;6.796;2022-08-21T14:32:17;24.40;99.90
54126;DHT22;40360;52.992;6.796;2022-08-21T14:34:44;24.40;99.90
54126;DHT22;40360;52.992;6.796;2022-08-21T14:37:10;24.40;99.90
54126;DHT22;40360;52.992;6.796;2022-08-21T14:39:35;24.60;99.90
54126;DHT22;40360;52.992;6.796;2022-08-21T14:42:01;24.40;99.90
54126;DHT22;40360;52.992;6.796;2022-08-21T14:44:27;24.40;99.90
54126;DHT22;40360;52.992;6.796;2022-08-21T14:46:53;24.40;99.90
54126;DHT22;40360;52.992;6.796;2022-08-21T14:49:20;24.30;99.90
54126;DHT22;40360;52.992;6.796;2022-08-21T14:51:46;24.20;99.90
54126;DHT22;40360;52.992;6.796;2022-08-21T14:54:12;24.10;99.90
54126;DHT22;40360;52.992;6.796;2022-08-21T14:56:37;24.00;99.90
54126;DHT22;40360;52.992;6.796;2022-08-21T14:59:06;24.10;99.90
54126;DHT22;40360;52.992;6.796;2022-08-21T15:01:36;24.10;99.90
54126;DHT22;40360;52.992;6.796;2022-08-21T15:04:02;24.20;99.90
54126;DHT22;40360;52.992;6.796;2022-08-21T15:06:28;24.20;99.90
54126;DHT22;40360;52.992;6.796;2022-08-21T15:08:54;24.20;99.90
54126;DHT22;40360;52.992;6.796;2022-08-21T15:11:21;24.40;99.90
54126;DHT22;40360;52.992;6.796;2022-08-21T15:13:52;24.40;99.90
54126;DHT22;40360;52.992;6.796;2022-08-21T15:16:18;24.60;99.90
54126;DHT22;40360;52.992;6.796;2022-08-21T15:18:43;24.60;99.90
54126;DHT22;40360;52.992;6.796;2022-08-21T15:21:09;24.60;99.90
54126;DHT22;40360;52.992;6.796;2022-08-21T15:23:35;24.60;99.90
54126;DHT22;40360;52.992;6.796;2022-08-21T15:26:01;24.60;99.90
54126;DHT22;40360;52.992;6.796;2022-08-21T15:28:27;24.40;99.90
54126;DHT22;40360;52.992;6.796;2022-08-21T15:30:52;24.30;99.90
54126;DHT22;40360;52.992;6.796;2022-08-21T15:33:18;24.40;99.90
54126;DHT22;40360;52.992;6.796;2022-08-21T15:35:44;24.40;99.90
54126;DHT22;40360;52.992;6.796;2022-08-21T15:38:11;24.20;99.90
54126;DHT22;40360;52.992;6.796;2022-08-21T15:40:38;23.70;99.90
54126;DHT22;40360;52.992;6.796;2022-08-21T15:43:05;23.70;99.90
54126;DHT22;40360;52.992;6.796;2022-08-21T15:45:30;23.70;99.90
54126;DHT22;40360;52.992;6.796;2022-08-21T15:47:57;23.90;99.90
54126;DHT22;40360;52.992;6.796;2022-08-21T15:50:23;24.00;99.90
54126;DHT22;40360;52.992;6.796;2022-08-21T15:52:50;23.80;99.90
54126;DHT22;40360;52.992;6.796;2022-08-21T15:55:15;23.80;99.90
54126;DHT22;40360;52.992;6.796;2022-08-21T15:57:48;23.70;99.90
54126;DHT22;40360;52.992;6.796;2022-08-21T16:00:22;23.70;99.90
54126;DHT22;40360;52.992;6.796;2022-08-21T16:02:50;23.60;99.90
54126;DHT22;40360;52.992;6.796;2022-08-21T16:05:17;23.50;99.90
54126;DHT22;40360;52.992;6.796;2022-08-21T16:07:44;23.50;99.90
54126;DHT22;40360;52.992;6.796;2022-08-21T16:10:10;24.00;99.90
54126;DHT22;40360;52.992;6.796;2022-08-21T16:12:50;23.40;99.90
54126;DHT22;40360;52.992;6.796;2022-08-21T16:15:19;23.80;99.90
54126;DHT22;40360;52.992;6.796;2022-08-21T16:17:47;23.40;99.90
54126;DHT22;40360;52.992;6.796;2022-08-21T16:20:18;23.40;99.90
54126;DHT22;40360;52.992;6.796;2022-08-21T16:22:44;23.70;99.90
54126;DHT22;40360;52.992;6.796;2022-08-21T16:25:10;23.20;99.90
54126;DHT22;40360;52.992;6.796;2022-08-21T16:27:36;23.20;99.90
54126;DHT22;40360;52.992;6.796;2022-08-21T16:30:04;23.20;99.90
54126;DHT22;40360;52.992;6.796;2022-08-21T16:32:30;23.10;99.90
54126;DHT22;40360;52.992;6.796;2022-08-21T16:34:56;22.90;99.90
54126;DHT22;40360;52.992;6.796;2022-08-21T16:37:22;22.80;99.90
54126;DHT22;40360;52.992;6.796;2022-08-21T16:39:48;22.70;99.90
54126;DHT22;40360;52.992;6.796;2022-08-21T16:42:18;23.40;99.90
54126;DHT22;40360;52.992;6.796;2022-08-21T16:44:44;22.70;99.90
54126;DHT22;40360;52.992;6.796;2022-08-21T16:47:09;23.00;99.90
54126;DHT22;40360;52.992;6.796;2022-08-21T16:49:35;22.70;99.90
54126;DHT22;40360;52.992;6.796;2022-08-21T16:52:01;22.50;99.90